Decatur, Texas
Current Conditions -  °F | °C
As of 12:55 PM on Tuesday 27 Jan 2015 (Local Time) from KLUD Reporting Station
Clear Clear  
Wind Chill: 24°   Ceiling: Unl
Heat Index: 24°   Visibility: 10mi
Dew Point:   Wind: 0mph
Humidity: 24%   Direction: NA
Pressure: 30.15"   Gusts: NA
Location:  33.23°N, 97.59°W
Report Text: KLUD 271855Z AUTO 00000KT 10SM CLR 24/02 A3015 RMK AO2 T02370020
Loading
Personal Weather Stations






























Interactive Weather Map New forecast layout! Learn more

10-Day Weather Forecast

Advertisements
Track Severe Weather on mobile